sensor_id;sensor_type;location;lat;lon;timestamp;temperature;humidity
80176;DHT22;75462;42.122;24.736;2024-02-23T00:02:19;9.00;62.90
80176;DHT22;75462;42.122;24.736;2024-02-23T00:04:45;8.80;63.70
80176;DHT22;75462;42.122;24.736;2024-02-23T00:07:11;8.70;64.00
80176;DHT22;75462;42.122;24.736;2024-02-23T00:09:37;8.80;63.30
80176;DHT22;75462;42.122;24.736;2024-02-23T00:12:03;8.80;63.20
80176;DHT22;75462;42.122;24.736;2024-02-23T00:14:29;8.60;63.70
80176;DHT22;75462;42.122;24.736;2024-02-23T00:16:56;8.50;64.50
80176;DHT22;75462;42.122;24.736;2024-02-23T00:19:23;8.40;64.00
80176;DHT22;75462;42.122;24.736;2024-02-23T00:21:49;8.30;64.20
80176;DHT22;75462;42.122;24.736;2024-02-23T00:24:16;8.30;64.40
80176;DHT22;75462;42.122;24.736;2024-02-23T00:26:43;8.30;64.50
80176;DHT22;75462;42.122;24.736;2024-02-23T00:29:08;8.30;65.00
80176;DHT22;75462;42.122;24.736;2024-02-23T00:31:37;8.10;65.50
80176;DHT22;75462;42.122;24.736;2024-02-23T00:34:03;8.00;66.10
80176;DHT22;75462;42.122;24.736;2024-02-23T00:36:29;7.90;66.30
80176;DHT22;75462;42.122;24.736;2024-02-23T00:38:54;7.90;66.70
80176;DHT22;75462;42.122;24.736;2024-02-23T00:41:20;7.80;66.80
80176;DHT22;75462;42.122;24.736;2024-02-23T00:43:46;7.90;66.60
80176;DHT22;75462;42.122;24.736;2024-02-23T00:46:13;7.80;66.90
80176;DHT22;75462;42.122;24.736;2024-02-23T00:48:40;7.70;67.90
80176;DHT22;75462;42.122;24.736;2024-02-23T00:51:05;7.90;67.00
80176;DHT22;75462;42.122;24.736;2024-02-23T00:53:33;8.10;65.90
80176;DHT22;75462;42.122;24.736;2024-02-23T00:55:58;8.20;65.20
80176;DHT22;75462;42.122;24.736;2024-02-23T00:58:24;8.10;64.60
80176;DHT22;75462;42.122;24.736;2024-02-23T01:00:50;8.00;64.70
80176;DHT22;75462;42.122;24.736;2024-02-23T01:03:15;8.00;64.50
80176;DHT22;75462;42.122;24.736;2024-02-23T01:05:41;7.90;64.00
80176;DHT22;75462;42.122;24.736;2024-02-23T01:08:08;7.70;65.20
80176;DHT22;75462;42.122;24.736;2024-02-23T01:10:34;7.80;65.50
80176;DHT22;75462;42.122;24.736;2024-02-23T01:13:00;7.80;64.60
80176;DHT22;75462;42.122;24.736;2024-02-23T01:15:25;7.80;64.30
80176;DHT22;75462;42.122;24.736;2024-02-23T01:17:51;7.80;64.80
80176;DHT22;75462;42.122;24.736;2024-02-23T01:20:17;7.70;64.70
80176;DHT22;75462;42.122;24.736;2024-02-23T01:22:43;7.50;65.30
80176;DHT22;75462;42.122;24.736;2024-02-23T01:25:08;7.70;64.70
80176;DHT22;75462;42.122;24.736;2024-02-23T01:27:34;7.70;64.60
80176;DHT22;75462;42.122;24.736;2024-02-23T01:30:00;7.70;64.80
80176;DHT22;75462;42.122;24.736;2024-02-23T01:32:26;7.60;65.70
80176;DHT22;75462;42.122;24.736;2024-02-23T01:34:52;7.60;66.30
80176;DHT22;75462;42.122;24.736;2024-02-23T01:37:17;7.80;65.20
80176;DHT22;75462;42.122;24.736;2024-02-23T01:39:43;7.80;64.50
80176;DHT22;75462;42.122;24.736;2024-02-23T01:42:09;7.70;65.00
80176;DHT22;75462;42.122;24.736;2024-02-23T01:44:35;7.80;64.80
80176;DHT22;75462;42.122;24.736;2024-02-23T01:47:00;7.90;64.40
80176;DHT22;75462;42.122;24.736;2024-02-23T01:49:26;8.00;64.40
80176;DHT22;75462;42.122;24.736;2024-02-23T01:51:57;8.00;63.90
80176;DHT22;75462;42.122;24.736;2024-02-23T01:54:24;8.00;63.90
80176;DHT22;75462;42.122;24.736;2024-02-23T01:56:50;8.00;63.80
80176;DHT22;75462;42.122;24.736;2024-02-23T01:59:16;7.90;63.80
80176;DHT22;75462;42.122;24.736;2024-02-23T02:01:45;7.80;63.90
80176;DHT22;75462;42.122;24.736;2024-02-23T02:04:11;7.70;64.10
80176;DHT22;75462;42.122;24.736;2024-02-23T02:06:37;7.60;64.40
80176;DHT22;75462;42.122;24.736;2024-02-23T02:09:03;7.50;64.70
80176;DHT22;75462;42.122;24.736;2024-02-23T02:11:28;7.40;65.20
80176;DHT22;75462;42.122;24.736;2024-02-23T02:13:54;7.40;65.90
80176;DHT22;75462;42.122;24.736;2024-02-23T02:16:20;7.10;67.10
80176;DHT22;75462;42.122;24.736;2024-02-23T02:18:45;7.40;66.20
80176;DHT22;75462;42.122;24.736;2024-02-23T02:21:11;7.40;65.70
80176;DHT22;75462;42.122;24.736;2024-02-23T02:23:37;7.50;65.10
80176;DHT22;75462;42.122;24.736;2024-02-23T02:26:03;7.40;65.00
80176;DHT22;75462;42.122;24.736;2024-02-23T02:28:29;7.20;66.20
80176;DHT22;75462;42.122;24.736;2024-02-23T02:30:55;7.30;66.20
80176;DHT22;75462;42.122;24.736;2024-02-23T02:33:22;7.50;65.40
80176;DHT22;75462;42.122;24.736;2024-02-23T02:35:48;7.30;65.70
80176;DHT22;75462;42.122;24.736;2024-02-23T02:38:15;7.10;66.60
80176;DHT22;75462;42.122;24.736;2024-02-23T02:40:41;7.10;66.50
80176;DHT22;75462;42.122;24.736;2024-02-23T02:43:07;7.00;66.70
80176;DHT22;75462;42.122;24.736;2024-02-23T02:45:33;7.40;65.40
80176;DHT22;75462;42.122;24.736;2024-02-23T02:48:00;7.10;65.00
80176;DHT22;75462;42.122;24.736;2024-02-23T02:50:27;6.70;66.10
80176;DHT22;75462;42.122;24.736;2024-02-23T02:52:53;6.50;66.70
80176;DHT22;75462;42.122;24.736;2024-02-23T02:55:18;6.20;68.10
80176;DHT22;75462;42.122;24.736;2024-02-23T02:57:44;6.40;67.70
80176;DHT22;75462;42.122;24.736;2024-02-23T03:00:11;6.20;67.90
80176;DHT22;75462;42.122;24.736;2024-02-23T03:02:37;6.10;68.70
80176;DHT22;75462;42.122;24.736;2024-02-23T03:05:04;5.90;69.50
80176;DHT22;75462;42.122;24.736;2024-02-23T03:07:30;5.90;69.80
80176;DHT22;75462;42.122;24.736;2024-02-23T03:09:56;5.90;69.80
80176;DHT22;75462;42.122;24.736;2024-02-23T03:12:21;5.90;69.90
80176;DHT22;75462;42.122;24.736;2024-02-23T03:14:47;5.90;69.80
80176;DHT22;75462;42.122;24.736;2024-02-23T03:17:13;5.90;70.20
80176;DHT22;75462;42.122;24.736;2024-02-23T03:19:39;6.20;69.10
80176;DHT22;75462;42.122;24.736;2024-02-23T03:22:04;6.40;67.70
80176;DHT22;75462;42.122;24.736;2024-02-23T03:24:30;6.60;66.30
80176;DHT22;75462;42.122;24.736;2024-02-23T03:26:56;6.70;66.10
80176;DHT22;75462;42.122;24.736;2024-02-23T03:29:22;6.50;66.50
80176;DHT22;75462;42.122;24.736;2024-02-23T03:31:55;6.50;67.20
80176;DHT22;75462;42.122;24.736;2024-02-23T03:34:20;6.70;66.30
80176;DHT22;75462;42.122;24.736;2024-02-23T03:36:46;6.90;65.00
80176;DHT22;75462;42.122;24.736;2024-02-23T03:39:12;6.60;66.10
80176;DHT22;75462;42.122;24.736;2024-02-23T03:41:38;6.60;66.70
80176;DHT22;75462;42.122;24.736;2024-02-23T03:44:04;6.50;66.80
80176;DHT22;75462;42.122;24.736;2024-02-23T03:46:29;6.50;66.80
80176;DHT22;75462;42.122;24.736;2024-02-23T03:48:55;6.70;65.70
80176;DHT22;75462;42.122;24.736;2024-02-23T03:51:21;6.50;66.10
80176;DHT22;75462;42.122;24.736;2024-02-23T03:53:47;6.70;65.30
80176;DHT22;75462;42.122;24.736;2024-02-23T03:56:13;6.40;66.40
80176;DHT22;75462;42.122;24.736;2024-02-23T03:58:38;6.50;66.70
80176;DHT22;75462;42.122;24.736;2024-02-23T04:01:04;6.60;66.00
80176;DHT22;75462;42.122;24.736;2024-02-23T04:03:30;6.60;65.90
80176;DHT22;75462;42.122;24.736;2024-02-23T04:05:55;6.80;64.90
80176;DHT22;75462;42.122;24.736;2024-02-23T04:08:21;6.70;65.20
80176;DHT22;75462;42.122;24.736;2024-02-23T04:10:47;6.50;65.20
80176;DHT22;75462;42.122;24.736;2024-02-23T04:13:12;6.20;66.80
80176;DHT22;75462;42.122;24.736;2024-02-23T04:15:43;6.20;66.80
80176;DHT22;75462;42.122;24.736;2024-02-23T04:18:09;6.10;67.00
80176;DHT22;75462;42.122;24.736;2024-02-23T04:20:35;6.00;67.30
80176;DHT22;75462;42.122;24.736;2024-02-23T04:23:00;5.90;68.00
80176;DHT22;75462;42.122;24.736;2024-02-23T04:25:26;5.90;68.40
80176;DHT22;75462;42.122;24.736;2024-02-23T04:27:52;6.00;68.30
80176;DHT22;75462;42.122;24.736;2024-02-23T04:30:17;6.10;67.80
80176;DHT22;75462;42.122;24.736;2024-02-23T04:32:43;6.20;67.50
80176;DHT22;75462;42.122;24.736;2024-02-23T04:35:09;6.20;67.10
80176;DHT22;75462;42.122;24.736;2024-02-23T04:37:35;6.10;67.30
80176;DHT22;75462;42.122;24.736;2024-02-23T04:40:01;6.10;67.80
80176;DHT22;75462;42.122;24.736;2024-02-23T04:42:27;6.00;68.20
80176;DHT22;75462;42.122;24.736;2024-02-23T04:44:53;5.90;68.40
80176;DHT22;75462;42.122;24.736;2024-02-23T04:47:20;5.90;68.60
80176;DHT22;75462;42.122;24.736;2024-02-23T04:49:46;5.70;69.40
80176;DHT22;75462;42.122;24.736;2024-02-23T04:52:12;5.30;71.80
80176;DHT22;75462;42.122;24.736;2024-02-23T04:54:37;5.10;73.90
80176;DHT22;75462;42.122;24.736;2024-02-23T04:57:03;5.00;74.40
80176;DHT22;75462;42.122;24.736;2024-02-23T04:59:29;4.90;75.10
80176;DHT22;75462;42.122;24.736;2024-02-23T05:01:57;4.90;75.70
80176;DHT22;75462;42.122;24.736;2024-02-23T05:04:23;4.90;75.80
80176;DHT22;75462;42.122;24.736;2024-02-23T05:06:49;5.00;75.80
80176;DHT22;75462;42.122;24.736;2024-02-23T05:09:14;5.00;75.60
80176;DHT22;75462;42.122;24.736;2024-02-23T05:11:40;5.40;74.40
80176;DHT22;75462;42.122;24.736;2024-02-23T05:14:06;5.90;71.40
80176;DHT22;75462;42.122;24.736;2024-02-23T05:16:32;6.30;69.50
80176;DHT22;75462;42.122;24.736;2024-02-23T05:18:57;6.20;69.60
80176;DHT22;75462;42.122;24.736;2024-02-23T05:21:23;5.80;71.30
80176;DHT22;75462;42.122;24.736;2024-02-23T05:23:49;5.60;72.50
80176;DHT22;75462;42.122;24.736;2024-02-23T05:26:15;5.50;73.00
80176;DHT22;75462;42.122;24.736;2024-02-23T05:28:40;5.80;71.90
80176;DHT22;75462;42.122;24.736;2024-02-23T05:31:06;6.30;70.00
80176;DHT22;75462;42.122;24.736;2024-02-23T05:33:32;6.20;69.80
80176;DHT22;75462;42.122;24.736;2024-02-23T05:35:58;6.50;68.50
80176;DHT22;75462;42.122;24.736;2024-02-23T05:38:24;6.50;68.30
80176;DHT22;75462;42.122;24.736;2024-02-23T05:40:49;6.60;67.40
80176;DHT22;75462;42.122;24.736;2024-02-23T05:43:15;6.70;66.90
80176;DHT22;75462;42.122;24.736;2024-02-23T05:45:41;6.70;66.50
80176;DHT22;75462;42.122;24.736;2024-02-23T05:48:07;6.70;67.00
80176;DHT22;75462;42.122;24.736;2024-02-23T05:50:32;6.60;67.20
80176;DHT22;75462;42.122;24.736;2024-02-23T05:52:58;6.60;67.10
80176;DHT22;75462;42.122;24.736;2024-02-23T05:55:24;6.50;67.80
80176;DHT22;75462;42.122;24.736;2024-02-23T05:57:50;6.00;69.90
80176;DHT22;75462;42.122;24.736;2024-02-23T06:00:19;5.90;71.00
80176;DHT22;75462;42.122;24.736;2024-02-23T06:02:45;5.80;71.60
80176;DHT22;75462;42.122;24.736;2024-02-23T06:05:12;5.60;72.30
80176;DHT22;75462;42.122;24.736;2024-02-23T06:07:38;5.60;72.60
80176;DHT22;75462;42.122;24.736;2024-02-23T06:10:04;5.60;72.90
80176;DHT22;75462;42.122;24.736;2024-02-23T06:12:30;5.60;72.30
80176;DHT22;75462;42.122;24.736;2024-02-23T06:14:56;5.60;72.50
80176;DHT22;75462;42.122;24.736;2024-02-23T06:17:24;6.00;71.20
80176;DHT22;75462;42.122;24.736;2024-02-23T06:19:49;5.80;71.40
80176;DHT22;75462;42.122;24.736;2024-02-23T06:22:16;6.10;71.00
80176;DHT22;75462;42.122;24.736;2024-02-23T06:24:46;6.20;69.50
80176;DHT22;75462;42.122;24.736;2024-02-23T06:27:12;6.20;69.50
80176;DHT22;75462;42.122;24.736;2024-02-23T06:29:38;6.20;69.10
80176;DHT22;75462;42.122;24.736;2024-02-23T06:32:04;6.20;69.70
80176;DHT22;75462;42.122;24.736;2024-02-23T06:34:30;6.20;69.30
80176;DHT22;75462;42.122;24.736;2024-02-23T06:36:56;6.60;68.20
80176;DHT22;75462;42.122;24.736;2024-02-23T06:39:21;6.60;67.80
80176;DHT22;75462;42.122;24.736;2024-02-23T06:41:47;6.60;68.00
80176;DHT22;75462;42.122;24.736;2024-02-23T06:44:13;6.80;67.10
80176;DHT22;75462;42.122;24.736;2024-02-23T06:46:38;6.90;66.20
80176;DHT22;75462;42.122;24.736;2024-02-23T06:49:04;7.20;64.40
80176;DHT22;75462;42.122;24.736;2024-02-23T06:51:31;7.20;64.30
80176;DHT22;75462;42.122;24.736;2024-02-23T06:53:57;7.10;64.70
80176;DHT22;75462;42.122;24.736;2024-02-23T06:56:23;7.10;64.60
80176;DHT22;75462;42.122;24.736;2024-02-23T06:58:49;7.20;64.60
80176;DHT22;75462;42.122;24.736;2024-02-23T07:01:15;7.30;64.20
80176;DHT22;75462;42.122;24.736;2024-02-23T07:03:40;7.40;64.20
80176;DHT22;75462;42.122;24.736;2024-02-23T07:06:10;7.80;62.90
80176;DHT22;75462;42.122;24.736;2024-02-23T07:08:36;7.90;62.20
80176;DHT22;75462;42.122;24.736;2024-02-23T07:11:02;8.00;62.10
80176;DHT22;75462;42.122;24.736;2024-02-23T07:13:28;7.90;62.50
80176;DHT22;75462;42.122;24.736;2024-02-23T07:15:55;8.10;63.50
80176;DHT22;75462;42.122;24.736;2024-02-23T07:18:22;8.20;62.00
80176;DHT22;75462;42.122;24.736;2024-02-23T07:20:47;8.50;60.80
80176;DHT22;75462;42.122;24.736;2024-02-23T07:23:13;8.50;60.90
80176;DHT22;75462;42.122;24.736;2024-02-23T07:25:41;8.80;60.20
80176;DHT22;75462;42.122;24.736;2024-02-23T07:28:07;9.00;59.00
80176;DHT22;75462;42.122;24.736;2024-02-23T07:30:33;9.00;60.00
80176;DHT22;75462;42.122;24.736;2024-02-23T07:33:00;9.30;58.40
80176;DHT22;75462;42.122;24.736;2024-02-23T07:35:26;9.10;58.90
80176;DHT22;75462;42.122;24.736;2024-02-23T07:37:52;9.10;59.20
80176;DHT22;75462;42.122;24.736;2024-02-23T07:40:18;9.40;58.40
80176;DHT22;75462;42.122;24.736;2024-02-23T07:42:43;9.80;57.10
80176;DHT22;75462;42.122;24.736;2024-02-23T07:45:09;9.90;56.40
80176;DHT22;75462;42.122;24.736;2024-02-23T07:47:36;9.80;57.00
80176;DHT22;75462;42.122;24.736;2024-02-23T07:50:01;9.60;57.90
80176;DHT22;75462;42.122;24.736;2024-02-23T07:52:27;9.80;57.70
80176;DHT22;75462;42.122;24.736;2024-02-23T07:54:54;10.10;57.30
80176;DHT22;75462;42.122;24.736;2024-02-23T07:57:20;10.30;56.40
80176;DHT22;75462;42.122;24.736;2024-02-23T07:59:46;10.50;55.70
80176;DHT22;75462;42.122;24.736;2024-02-23T08:02:12;10.60;55.20
80176;DHT22;75462;42.122;24.736;2024-02-23T08:04:37;10.40;56.00
80176;DHT22;75462;42.122;24.736;2024-02-23T08:07:04;10.50;55.90
80176;DHT22;75462;42.122;24.736;2024-02-23T08:09:29;10.60;55.70
80176;DHT22;75462;42.122;24.736;2024-02-23T08:11:55;10.80;56.00
80176;DHT22;75462;42.122;24.736;2024-02-23T08:14:21;10.90;58.70
80176;DHT22;75462;42.122;24.736;2024-02-23T08:16:47;11.40;58.20
80176;DHT22;75462;42.122;24.736;2024-02-23T08:19:13;11.80;55.00
80176;DHT22;75462;42.122;24.736;2024-02-23T08:21:38;12.00;56.60
80176;DHT22;75462;42.122;24.736;2024-02-23T08:24:05;12.00;55.60
80176;DHT22;75462;42.122;24.736;2024-02-23T08:26:31;11.90;54.60
80176;DHT22;75462;42.122;24.736;2024-02-23T08:28:56;11.90;57.10
80176;DHT22;75462;42.122;24.736;2024-02-23T08:31:22;12.20;55.30
80176;DHT22;75462;42.122;24.736;2024-02-23T08:33:48;12.50;55.30
80176;DHT22;75462;42.122;24.736;2024-02-23T08:36:16;12.80;53.30
80176;DHT22;75462;42.122;24.736;2024-02-23T08:38:42;13.00;51.60
80176;DHT22;75462;42.122;24.736;2024-02-23T08:41:08;13.00;52.00
80176;DHT22;75462;42.122;24.736;2024-02-23T08:43:34;13.10;51.90
80176;DHT22;75462;42.122;24.736;2024-02-23T08:46:00;13.10;51.30
80176;DHT22;75462;42.122;24.736;2024-02-23T08:48:25;13.00;51.10
80176;DHT22;75462;42.122;24.736;2024-02-23T08:50:51;13.20;50.20
80176;DHT22;75462;42.122;24.736;2024-02-23T08:53:17;12.90;50.60
80176;DHT22;75462;42.122;24.736;2024-02-23T08:55:43;12.50;52.40
80176;DHT22;75462;42.122;24.736;2024-02-23T08:58:09;12.40;53.20
80176;DHT22;75462;42.122;24.736;2024-02-23T09:00:35;12.20;53.40
80176;DHT22;75462;42.122;24.736;2024-02-23T09:03:02;12.40;53.40
80176;DHT22;75462;42.122;24.736;2024-02-23T09:05:28;12.80;52.10
80176;DHT22;75462;42.122;24.736;2024-02-23T09:07:54;13.10;50.90
80176;DHT22;75462;42.122;24.736;2024-02-23T09:10:20;13.30;49.90
80176;DHT22;75462;42.122;24.736;2024-02-23T09:12:46;13.50;49.30
80176;DHT22;75462;42.122;24.736;2024-02-23T09:15:12;13.60;48.50
80176;DHT22;75462;42.122;24.736;2024-02-23T09:17:40;13.40;48.40
80176;DHT22;75462;42.122;24.736;2024-02-23T09:20:06;13.40;49.10
80176;DHT22;75462;42.122;24.736;2024-02-23T09:22:32;13.30;49.30
80176;DHT22;75462;42.122;24.736;2024-02-23T09:24:58;13.30;49.30
80176;DHT22;75462;42.122;24.736;2024-02-23T09:27:24;13.40;49.60
80176;DHT22;75462;42.122;24.736;2024-02-23T09:29:50;13.50;50.00
80176;DHT22;75462;42.122;24.736;2024-02-23T09:32:16;13.70;48.60
80176;DHT22;75462;42.122;24.736;2024-02-23T09:34:41;13.80;48.60
80176;DHT22;75462;42.122;24.736;2024-02-23T09:37:08;13.90;48.40
80176;DHT22;75462;42.122;24.736;2024-02-23T09:39:33;13.80;49.10
80176;DHT22;75462;42.122;24.736;2024-02-23T09:42:01;13.90;49.10
80176;DHT22;75462;42.122;24.736;2024-02-23T09:44:32;14.00;48.10
80176;DHT22;75462;42.122;24.736;2024-02-23T09:47:04;13.90;48.30
80176;DHT22;75462;42.122;24.736;2024-02-23T09:49:40;13.70;49.10
80176;DHT22;75462;42.122;24.736;2024-02-23T09:52:10;13.60;50.00
80176;DHT22;75462;42.122;24.736;2024-02-23T09:54:39;13.70;50.10
80176;DHT22;75462;42.122;24.736;2024-02-23T09:57:07;13.90;50.10
80176;DHT22;75462;42.122;24.736;2024-02-23T09:59:43;14.00;49.30
80176;DHT22;75462;42.122;24.736;2024-02-23T10:02:10;14.40;47.70
80176;DHT22;75462;42.122;24.736;2024-02-23T10:04:44;14.60;46.80
80176;DHT22;75462;42.122;24.736;2024-02-23T10:07:10;14.80;46.00
80176;DHT22;75462;42.122;24.736;2024-02-23T10:09:42;15.10;45.10
80176;DHT22;75462;42.122;24.736;2024-02-23T10:12:08;15.20;45.00
80176;DHT22;75462;42.122;24.736;2024-02-23T10:14:34;15.40;44.10
80176;DHT22;75462;42.122;24.736;2024-02-23T10:16:59;15.40;44.30
80176;DHT22;75462;42.122;24.736;2024-02-23T10:19:27;15.50;43.60
80176;DHT22;75462;42.122;24.736;2024-02-23T10:21:55;15.60;43.70
80176;DHT22;75462;42.122;24.736;2024-02-23T10:24:22;15.70;43.30
80176;DHT22;75462;42.122;24.736;2024-02-23T10:26:55;15.80;43.50
80176;DHT22;75462;42.122;24.736;2024-02-23T10:29:20;15.80;44.00
80176;DHT22;75462;42.122;24.736;2024-02-23T10:31:47;15.90;42.90
80176;DHT22;75462;42.122;24.736;2024-02-23T10:34:18;15.70;42.80
80176;DHT22;75462;42.122;24.736;2024-02-23T10:36:47;15.70;43.40
80176;DHT22;75462;42.122;24.736;2024-02-23T10:39:17;15.70;42.80
80176;DHT22;75462;42.122;24.736;2024-02-23T10:41:57;15.70;43.30
80176;DHT22;75462;42.122;24.736;2024-02-23T10:44:24;16.00;43.00
80176;DHT22;75462;42.122;24.736;2024-02-23T10:46:56;16.10;41.30
80176;DHT22;75462;42.122;24.736;2024-02-23T10:49:24;16.30;41.40
80176;DHT22;75462;42.122;24.736;2024-02-23T10:51:54;16.20;41.80
80176;DHT22;75462;42.122;24.736;2024-02-23T10:54:20;16.50;40.40
80176;DHT22;75462;42.122;24.736;2024-02-23T10:56:51;16.70;40.00
80176;DHT22;75462;42.122;24.736;2024-02-23T10:59:17;16.90;39.80
80176;DHT22;75462;42.122;24.736;2024-02-23T11:01:48;17.00;39.30
80176;DHT22;75462;42.122;24.736;2024-02-23T11:04:16;17.00;39.00
80176;DHT22;75462;42.122;24.736;2024-02-23T11:06:42;16.80;39.50
80176;DHT22;75462;42.122;24.736;2024-02-23T11:09:15;16.90;40.20
80176;DHT22;75462;42.122;24.736;2024-02-23T11:11:57;17.00;39.80
80176;DHT22;75462;42.122;24.736;2024-02-23T11:14:35;17.10;39.10
80176;DHT22;75462;42.122;24.736;2024-02-23T11:17:02;17.20;39.00
80176;DHT22;75462;42.122;24.736;2024-02-23T11:19:35;17.60;37.80
80176;DHT22;75462;42.122;24.736;2024-02-23T11:22:01;17.70;36.60
80176;DHT22;75462;42.122;24.736;2024-02-23T11:24:31;18.00;36.00
80176;DHT22;75462;42.122;24.736;2024-02-23T11:26:58;18.40;35.40
80176;DHT22;75462;42.122;24.736;2024-02-23T11:29:29;19.10;33.60
80176;DHT22;75462;42.122;24.736;2024-02-23T11:31:55;19.70;32.30
80176;DHT22;75462;42.122;24.736;2024-02-23T11:34:27;20.40;30.90
80176;DHT22;75462;42.122;24.736;2024-02-23T11:36:56;21.10;29.60
80176;DHT22;75462;42.122;24.736;2024-02-23T11:39:26;21.50;28.40
80176;DHT22;75462;42.122;24.736;2024-02-23T11:41:51;21.90;27.90
80176;DHT22;75462;42.122;24.736;2024-02-23T11:44:18;22.90;26.70
80176;DHT22;75462;42.122;24.736;2024-02-23T11:46:47;24.50;24.90
80176;DHT22;75462;42.122;24.736;2024-02-23T11:49:16;25.10;23.00
80176;DHT22;75462;42.122;24.736;2024-02-23T11:51:42;26.00;21.80
80176;DHT22;75462;42.122;24.736;2024-02-23T11:54:08;25.40;21.40
80176;DHT22;75462;42.122;24.736;2024-02-23T11:56:37;25.30;22.00
80176;DHT22;75462;42.122;24.736;2024-02-23T11:59:05;25.60;22.10
80176;DHT22;75462;42.122;24.736;2024-02-23T12:01:31;26.50;21.60
80176;DHT22;75462;42.122;24.736;2024-02-23T12:03:57;27.40;20.60
80176;DHT22;75462;42.122;24.736;2024-02-23T12:06:26;28.20;19.50
80176;DHT22;75462;42.122;24.736;2024-02-23T12:08:55;28.60;18.50
80176;DHT22;75462;42.122;24.736;2024-02-23T12:11:24;28.20;18.40
80176;DHT22;75462;42.122;24.736;2024-02-23T12:13:50;27.60;19.10
80176;DHT22;75462;42.122;24.736;2024-02-23T12:16:16;27.00;20.30
80176;DHT22;75462;42.122;24.736;2024-02-23T12:18:42;26.30;19.80
80176;DHT22;75462;42.122;24.736;2024-02-23T12:21:09;26.60;19.90
80176;DHT22;75462;42.122;24.736;2024-02-23T12:23:53;25.90;20.20
80176;DHT22;75462;42.122;24.736;2024-02-23T12:26:18;25.70;20.80
80176;DHT22;75462;42.122;24.736;2024-02-23T12:28:45;26.30;20.30
80176;DHT22;75462;42.122;24.736;2024-02-23T12:31:13;25.70;20.40
80176;DHT22;75462;42.122;24.736;2024-02-23T12:33:40;25.00;21.60
80176;DHT22;75462;42.122;24.736;2024-02-23T12:36:07;25.60;21.40
80176;DHT22;75462;42.122;24.736;2024-02-23T12:38:35;26.00;20.70
80176;DHT22;75462;42.122;24.736;2024-02-23T12:41:01;26.00;20.70
80176;DHT22;75462;42.122;24.736;2024-02-23T12:43:28;26.10;20.30
80176;DHT22;75462;42.122;24.736;2024-02-23T12:45:55;26.00;20.30
80176;DHT22;75462;42.122;24.736;2024-02-23T12:48:21;26.10;19.80
80176;DHT22;75462;42.122;24.736;2024-02-23T12:50:48;26.90;19.30
80176;DHT22;75462;42.122;24.736;2024-02-23T12:53:37;27.50;19.10
80176;DHT22;75462;42.122;24.736;2024-02-23T12:56:04;27.60;18.70
80176;DHT22;75462;42.122;24.736;2024-02-23T12:58:31;28.90;17.80
80176;DHT22;75462;42.122;24.736;2024-02-23T13:01:00;29.20;17.10
80176;DHT22;75462;42.122;24.736;2024-02-23T13:03:26;28.50;17.30
80176;DHT22;75462;42.122;24.736;2024-02-23T13:05:53;28.40;17.80
80176;DHT22;75462;42.122;24.736;2024-02-23T13:08:19;28.20;17.60
80176;DHT22;75462;42.122;24.736;2024-02-23T13:10:45;28.00;18.00
80176;DHT22;75462;42.122;24.736;2024-02-23T13:13:11;27.60;18.30
80176;DHT22;75462;42.122;24.736;2024-02-23T13:15:38;27.70;18.40
80176;DHT22;75462;42.122;24.736;2024-02-23T13:18:04;27.70;18.20
80176;DHT22;75462;42.122;24.736;2024-02-23T13:20:31;27.80;18.10
80176;DHT22;75462;42.122;24.736;2024-02-23T13:22:57;27.30;18.10
80176;DHT22;75462;42.122;24.736;2024-02-23T13:25:22;26.30;19.30
80176;DHT22;75462;42.122;24.736;2024-02-23T13:27:48;25.90;19.90
80176;DHT22;75462;42.122;24.736;2024-02-23T13:30:14;26.10;20.10
80176;DHT22;75462;42.122;24.736;2024-02-23T13:32:40;25.70;20.10
80176;DHT22;75462;42.122;24.736;2024-02-23T13:35:06;25.70;20.70
80176;DHT22;75462;42.122;24.736;2024-02-23T13:37:32;25.60;20.60
80176;DHT22;75462;42.122;24.736;2024-02-23T13:39:58;25.90;20.30
80176;DHT22;75462;42.122;24.736;2024-02-23T13:42:24;26.10;20.10
80176;DHT22;75462;42.122;24.736;2024-02-23T13:44:49;26.40;19.90
80176;DHT22;75462;42.122;24.736;2024-02-23T13:47:15;26.40;19.70
80176;DHT22;75462;42.122;24.736;2024-02-23T13:49:41;26.30;19.70
80176;DHT22;75462;42.122;24.736;2024-02-23T13:52:07;26.10;19.90
80176;DHT22;75462;42.122;24.736;2024-02-23T13:54:33;26.10;19.70
80176;DHT22;75462;42.122;24.736;2024-02-23T13:56:58;26.50;19.70
80176;DHT22;75462;42.122;24.736;2024-02-23T13:59:24;26.50;19.70
80176;DHT22;75462;42.122;24.736;2024-02-23T14:01:50;27.40;19.00
80176;DHT22;75462;42.122;24.736;2024-02-23T14:04:17;28.00;17.90
80176;DHT22;75462;42.122;24.736;2024-02-23T14:06:43;27.80;17.90
80176;DHT22;75462;42.122;24.736;2024-02-23T14:09:09;27.80;18.00
80176;DHT22;75462;42.122;24.736;2024-02-23T14:11:35;27.40;18.30
80176;DHT22;75462;42.122;24.736;2024-02-23T14:14:01;27.00;18.80
80176;DHT22;75462;42.122;24.736;2024-02-23T14:16:28;26.80;19.10
80176;DHT22;75462;42.122;24.736;2024-02-23T14:18:54;26.60;19.20
80176;DHT22;75462;42.122;24.736;2024-02-23T14:21:20;27.00;19.50
80176;DHT22;75462;42.122;24.736;2024-02-23T14:23:48;26.80;19.30
80176;DHT22;75462;42.122;24.736;2024-02-23T14:26:14;26.30;19.80
80176;DHT22;75462;42.122;24.736;2024-02-23T14:28:39;25.90;20.40
80176;DHT22;75462;42.122;24.736;2024-02-23T14:31:06;25.70;20.80
80176;DHT22;75462;42.122;24.736;2024-02-23T14:33:32;25.60;20.90
80176;DHT22;75462;42.122;24.736;2024-02-23T14:35:58;25.70;20.70
80176;DHT22;75462;42.122;24.736;2024-02-23T14:38:25;25.80;20.70
80176;DHT22;75462;42.122;24.736;2024-02-23T14:40:51;25.30;21.30
80176;DHT22;75462;42.122;24.736;2024-02-23T14:43:16;24.90;21.90
80176;DHT22;75462;42.122;24.736;2024-02-23T14:45:42;24.70;22.20
80176;DHT22;75462;42.122;24.736;2024-02-23T14:48:08;24.50;22.50
80176;DHT22;75462;42.122;24.736;2024-02-23T14:50:33;24.40;22.50
80176;DHT22;75462;42.122;24.736;2024-02-23T14:52:59;24.50;22.30
80176;DHT22;75462;42.122;24.736;2024-02-23T14:55:25;24.70;21.90
80176;DHT22;75462;42.122;24.736;2024-02-23T14:57:51;24.80;21.80
80176;DHT22;75462;42.122;24.736;2024-02-23T15:00:17;24.70;21.90
80176;DHT22;75462;42.122;24.736;2024-02-23T15:02:43;24.60;22.10
80176;DHT22;75462;42.122;24.736;2024-02-23T15:05:09;24.30;22.40
80176;DHT22;75462;42.122;24.736;2024-02-23T15:07:38;23.90;23.10
80176;DHT22;75462;42.122;24.736;2024-02-23T15:10:04;23.60;23.80
80176;DHT22;75462;42.122;24.736;2024-02-23T15:12:34;23.30;24.20
80176;DHT22;75462;42.122;24.736;2024-02-23T15:14:59;22.90;24.60
80176;DHT22;75462;42.122;24.736;2024-02-23T15:17:25;22.60;25.10
80176;DHT22;75462;42.122;24.736;2024-02-23T15:19:51;22.30;25.70